KQBF

Ouagadougou

Ouagadougou, Burkina Faso
METAR KQBF 142356Z AUTO VRB03KT 9999 BKN160 26/22 A2997 RMK AO2 SLPNO WND DATA ESTMD T02560222 10306 20256 58001
Observed Flight Rules
Aug-14 @ 23:56 UTC (an hour ago) Visual Flight Rules
Wind Visibility Clouds
Variable at 3 knots 10,000+ meters
  • Broken at 16,000' AGL
Temperatures Readings
Current 26°C / 79°F
Dewpoint 22°C / 72°F
Humidity 79%
Altimeter 29.97" Hg
Pressure 1015 hPa
METAR KQBF 142356Z AUTO VRB03KT 9999 BKN160 26/22 A2997 RMK AO2 SLPNO WND DATA ESTMD T02560222 10306 20256 58001
Observed Flight Rules
Aug-14 @ 23:56 UTC
(an hour ago)
VFR
Wind Visibility
Variable at 3 knots 10,000+ meters
Clouds
  • Broken at 16,000' AGL
Temperature Dewpoint
26°C / 79°F 22°C / 72°F
Humidity Altimeter Pressure
79% 29.97" Hg 1015 hPa